sensor_id;sensor_type;location;lat;lon;timestamp;temperature;humidity
19908;DHT22;10116;53.112;7.356;2023-04-03T00:01:03;24.20;1.00
19908;DHT22;10116;53.112;7.356;2023-04-03T00:03:29;24.30;1.00
19908;DHT22;10116;53.112;7.356;2023-04-03T00:05:55;24.20;1.00
19908;DHT22;10116;53.112;7.356;2023-04-03T00:08:20;24.20;1.00
19908;DHT22;10116;53.112;7.356;2023-04-03T00:10:46;24.20;1.00
19908;DHT22;10116;53.112;7.356;2023-04-03T00:13:12;24.20;1.00
19908;DHT22;10116;53.112;7.356;2023-04-03T00:15:38;24.20;1.00
19908;DHT22;10116;53.112;7.356;2023-04-03T00:18:05;24.20;1.00
19908;DHT22;10116;53.112;7.356;2023-04-03T00:20:31;24.20;1.00
19908;DHT22;10116;53.112;7.356;2023-04-03T00:22:57;24.20;1.00
19908;DHT22;10116;53.112;7.356;2023-04-03T00:25:23;24.20;1.00
19908;DHT22;10116;53.112;7.356;2023-04-03T00:27:49;24.20;1.00
19908;DHT22;10116;53.112;7.356;2023-04-03T00:30:17;24.20;1.00
19908;DHT22;10116;53.112;7.356;2023-04-03T00:32:43;24.20;1.00
19908;DHT22;10116;53.112;7.356;2023-04-03T00:35:09;24.20;1.00
19908;DHT22;10116;53.112;7.356;2023-04-03T00:37:35;24.20;1.00
19908;DHT22;10116;53.112;7.356;2023-04-03T00:40:02;24.20;1.00
19908;DHT22;10116;53.112;7.356;2023-04-03T00:42:28;24.20;1.00
19908;DHT22;10116;53.112;7.356;2023-04-03T00:47:23;24.20;1.00
19908;DHT22;10116;53.112;7.356;2023-04-03T00:49:50;24.20;1.00
19908;DHT22;10116;53.112;7.356;2023-04-03T00:52:20;24.20;1.00
19908;DHT22;10116;53.112;7.356;2023-04-03T00:54:47;24.20;1.00
19908;DHT22;10116;53.112;7.356;2023-04-03T00:57:15;24.20;1.00
19908;DHT22;10116;53.112;7.356;2023-04-03T00:59:50;24.20;1.00
19908;DHT22;10116;53.112;7.356;2023-04-03T01:02:17;24.20;1.00
19908;DHT22;10116;53.112;7.356;2023-04-03T01:04:44;24.20;1.00
19908;DHT22;10116;53.112;7.356;2023-04-03T01:07:17;24.20;1.00
19908;DHT22;10116;53.112;7.356;2023-04-03T01:09:45;24.20;1.00
19908;DHT22;10116;53.112;7.356;2023-04-03T01:12:19;24.20;1.00
19908;DHT22;10116;53.112;7.356;2023-04-03T01:14:48;24.10;1.00
19908;DHT22;10116;53.112;7.356;2023-04-03T01:17:36;24.20;1.00
19908;DHT22;10116;53.112;7.356;2023-04-03T01:25:49;24.10;1.00
19908;DHT22;10116;53.112;7.356;2023-04-03T01:28:21;24.10;1.00
19908;DHT22;10116;53.112;7.356;2023-04-03T01:33:31;24.10;1.00
19908;DHT22;10116;53.112;7.356;2023-04-03T01:35:57;24.10;1.00
19908;DHT22;10116;53.112;7.356;2023-04-03T01:38:23;24.10;1.00
19908;DHT22;10116;53.112;7.356;2023-04-03T01:40:48;24.10;1.00
19908;DHT22;10116;53.112;7.356;2023-04-03T01:43:14;24.20;1.00
19908;DHT22;10116;53.112;7.356;2023-04-03T01:45:39;24.20;1.00
19908;DHT22;10116;53.112;7.356;2023-04-03T01:48:05;24.20;1.00
19908;DHT22;10116;53.112;7.356;2023-04-03T01:50:31;24.20;1.00
19908;DHT22;10116;53.112;7.356;2023-04-03T01:52:57;24.20;1.00
19908;DHT22;10116;53.112;7.356;2023-04-03T01:55:22;24.20;1.00
19908;DHT22;10116;53.112;7.356;2023-04-03T01:57:48;24.20;1.00
19908;DHT22;10116;53.112;7.356;2023-04-03T02:00:14;24.20;1.00
19908;DHT22;10116;53.112;7.356;2023-04-03T02:02:40;24.20;1.00
19908;DHT22;10116;53.112;7.356;2023-04-03T02:05:06;24.20;1.00
19908;DHT22;10116;53.112;7.356;2023-04-03T02:07:31;24.20;1.00
19908;DHT22;10116;53.112;7.356;2023-04-03T02:09:57;24.20;1.00
19908;DHT22;10116;53.112;7.356;2023-04-03T02:12:23;24.20;1.00
19908;DHT22;10116;53.112;7.356;2023-04-03T02:14:48;24.20;1.00
19908;DHT22;10116;53.112;7.356;2023-04-03T02:17:14;24.20;1.00
19908;DHT22;10116;53.112;7.356;2023-04-03T02:19:40;24.20;1.00
19908;DHT22;10116;53.112;7.356;2023-04-03T02:22:05;24.20;1.00
19908;DHT22;10116;53.112;7.356;2023-04-03T02:24:32;24.20;1.00
19908;DHT22;10116;53.112;7.356;2023-04-03T02:26:58;24.20;2.50
19908;DHT22;10116;53.112;7.356;2023-04-03T02:29:23;24.20;1.00
19908;DHT22;10116;53.112;7.356;2023-04-03T02:31:49;24.30;1.00
19908;DHT22;10116;53.112;7.356;2023-04-03T02:34:15;24.30;1.00
19908;DHT22;10116;53.112;7.356;2023-04-03T02:36:41;24.30;1.00
19908;DHT22;10116;53.112;7.356;2023-04-03T02:39:07;24.40;1.00
19908;DHT22;10116;53.112;7.356;2023-04-03T02:41:32;24.40;1.00
19908;DHT22;10116;53.112;7.356;2023-04-03T02:44:02;24.40;1.00
19908;DHT22;10116;53.112;7.356;2023-04-03T02:46:28;24.40;1.00
19908;DHT22;10116;53.112;7.356;2023-04-03T02:48:53;24.40;1.00
19908;DHT22;10116;53.112;7.356;2023-04-03T02:51:19;24.50;1.00
19908;DHT22;10116;53.112;7.356;2023-04-03T02:53:45;24.50;1.00
19908;DHT22;10116;53.112;7.356;2023-04-03T02:56:10;24.50;1.00
19908;DHT22;10116;53.112;7.356;2023-04-03T02:58:36;24.50;1.00
19908;DHT22;10116;53.112;7.356;2023-04-03T03:01:02;24.50;1.00
19908;DHT22;10116;53.112;7.356;2023-04-03T03:03:28;24.50;1.00
19908;DHT22;10116;53.112;7.356;2023-04-03T03:06:05;24.50;1.00
19908;DHT22;10116;53.112;7.356;2023-04-03T03:08:31;24.50;1.00
19908;DHT22;10116;53.112;7.356;2023-04-03T03:10:57;24.50;1.00
19908;DHT22;10116;53.112;7.356;2023-04-03T03:13:23;24.50;1.00
19908;DHT22;10116;53.112;7.356;2023-04-03T03:15:49;24.50;1.00
19908;DHT22;10116;53.112;7.356;2023-04-03T03:18:14;24.50;1.00
19908;DHT22;10116;53.112;7.356;2023-04-03T03:20:40;24.50;1.00
19908;DHT22;10116;53.112;7.356;2023-04-03T03:23:05;24.50;1.00
19908;DHT22;10116;53.112;7.356;2023-04-03T03:25:31;24.40;1.00
19908;DHT22;10116;53.112;7.356;2023-04-03T03:27:56;24.50;1.00
19908;DHT22;10116;53.112;7.356;2023-04-03T03:30:22;24.50;1.00
19908;DHT22;10116;53.112;7.356;2023-04-03T03:32:48;24.50;1.00
19908;DHT22;10116;53.112;7.356;2023-04-03T03:35:13;24.60;1.00
19908;DHT22;10116;53.112;7.356;2023-04-03T03:37:39;24.60;1.00
19908;DHT22;10116;53.112;7.356;2023-04-03T03:40:05;24.70;1.00
19908;DHT22;10116;53.112;7.356;2023-04-03T03:42:31;24.70;1.00
19908;DHT22;10116;53.112;7.356;2023-04-03T03:44:56;24.70;1.00
19908;DHT22;10116;53.112;7.356;2023-04-03T03:47:22;24.80;1.00
19908;DHT22;10116;53.112;7.356;2023-04-03T03:49:48;24.80;1.00
19908;DHT22;10116;53.112;7.356;2023-04-03T03:52:13;24.90;1.00
19908;DHT22;10116;53.112;7.356;2023-04-03T03:54:39;24.90;1.00
19908;DHT22;10116;53.112;7.356;2023-04-03T03:57:04;24.90;1.00
19908;DHT22;10116;53.112;7.356;2023-04-03T03:59:30;24.90;1.00
19908;DHT22;10116;53.112;7.356;2023-04-03T04:01:56;24.90;1.00
19908;DHT22;10116;53.112;7.356;2023-04-03T04:04:21;24.90;1.00
19908;DHT22;10116;53.112;7.356;2023-04-03T04:06:47;24.90;1.00
19908;DHT22;10116;53.112;7.356;2023-04-03T04:09:13;24.90;1.00
19908;DHT22;10116;53.112;7.356;2023-04-03T04:11:38;24.90;1.00
19908;DHT22;10116;53.112;7.356;2023-04-03T04:14:06;24.90;1.00
19908;DHT22;10116;53.112;7.356;2023-04-03T04:16:32;24.80;1.00
19908;DHT22;10116;53.112;7.356;2023-04-03T04:18:57;24.80;1.00
19908;DHT22;10116;53.112;7.356;2023-04-03T04:21:23;24.80;1.00
19908;DHT22;10116;53.112;7.356;2023-04-03T04:23:49;24.80;1.00
19908;DHT22;10116;53.112;7.356;2023-04-03T04:26:15;24.80;1.00
19908;DHT22;10116;53.112;7.356;2023-04-03T04:28:40;24.80;1.00
19908;DHT22;10116;53.112;7.356;2023-04-03T04:31:06;24.80;1.00
19908;DHT22;10116;53.112;7.356;2023-04-03T04:33:31;24.70;1.00
19908;DHT22;10116;53.112;7.356;2023-04-03T04:35:57;24.80;1.00
19908;DHT22;10116;53.112;7.356;2023-04-03T04:38:22;24.70;1.00
19908;DHT22;10116;53.112;7.356;2023-04-03T04:40:48;24.70;1.00
19908;DHT22;10116;53.112;7.356;2023-04-03T04:43:14;24.70;1.00
19908;DHT22;10116;53.112;7.356;2023-04-03T04:45:41;24.70;1.00
19908;DHT22;10116;53.112;7.356;2023-04-03T04:48:06;24.80;1.00
19908;DHT22;10116;53.112;7.356;2023-04-03T04:50:32;24.80;1.00
19908;DHT22;10116;53.112;7.356;2023-04-03T04:52:57;24.80;1.00
19908;DHT22;10116;53.112;7.356;2023-04-03T04:55:23;24.80;1.00
19908;DHT22;10116;53.112;7.356;2023-04-03T04:57:49;24.90;1.00
19908;DHT22;10116;53.112;7.356;2023-04-03T05:00:15;24.90;1.00
19908;DHT22;10116;53.112;7.356;2023-04-03T05:02:41;24.90;1.00
19908;DHT22;10116;53.112;7.356;2023-04-03T05:05:07;24.90;1.00
19908;DHT22;10116;53.112;7.356;2023-04-03T05:07:33;24.90;1.00
19908;DHT22;10116;53.112;7.356;2023-04-03T05:09:58;24.90;1.00
19908;DHT22;10116;53.112;7.356;2023-04-03T05:12:24;24.90;1.00
19908;DHT22;10116;53.112;7.356;2023-04-03T05:14:50;24.80;1.00
19908;DHT22;10116;53.112;7.356;2023-04-03T05:17:15;24.80;1.00
19908;DHT22;10116;53.112;7.356;2023-04-03T05:19:41;24.80;1.00
19908;DHT22;10116;53.112;7.356;2023-04-03T05:22:06;24.80;1.00
19908;DHT22;10116;53.112;7.356;2023-04-03T05:24:32;24.80;1.00
19908;DHT22;10116;53.112;7.356;2023-04-03T05:26:58;24.80;3.90
19908;DHT22;10116;53.112;7.356;2023-04-03T05:29:24;24.70;1.00
19908;DHT22;10116;53.112;7.356;2023-04-03T05:31:50;24.70;1.00
19908;DHT22;10116;53.112;7.356;2023-04-03T05:34:16;24.70;1.00
19908;DHT22;10116;53.112;7.356;2023-04-03T05:36:41;24.70;1.00
19908;DHT22;10116;53.112;7.356;2023-04-03T05:39:07;24.70;1.00
19908;DHT22;10116;53.112;7.356;2023-04-03T05:41:33;24.80;1.00
19908;DHT22;10116;53.112;7.356;2023-04-03T05:43:58;24.80;1.00
19908;DHT22;10116;53.112;7.356;2023-04-03T05:46:24;24.90;1.00
19908;DHT22;10116;53.112;7.356;2023-04-03T05:48:50;24.90;1.00
19908;DHT22;10116;53.112;7.356;2023-04-03T05:51:19;25.00;1.00
19908;DHT22;10116;53.112;7.356;2023-04-03T05:53:45;25.10;1.00
19908;DHT22;10116;53.112;7.356;2023-04-03T05:56:12;25.10;1.00
19908;DHT22;10116;53.112;7.356;2023-04-03T05:58:37;25.20;1.00
19908;DHT22;10116;53.112;7.356;2023-04-03T06:01:03;25.20;1.00
19908;DHT22;10116;53.112;7.356;2023-04-03T06:03:29;25.30;1.00
19908;DHT22;10116;53.112;7.356;2023-04-03T06:05:55;25.30;1.00
19908;DHT22;10116;53.112;7.356;2023-04-03T06:08:20;25.30;1.00
19908;DHT22;10116;53.112;7.356;2023-04-03T06:10:46;25.40;1.00
19908;DHT22;10116;53.112;7.356;2023-04-03T06:13:12;25.40;1.00
19908;DHT22;10116;53.112;7.356;2023-04-03T06:15:37;25.40;1.00
19908;DHT22;10116;53.112;7.356;2023-04-03T06:18:05;25.40;1.00
19908;DHT22;10116;53.112;7.356;2023-04-03T06:20:30;25.40;1.00
19908;DHT22;10116;53.112;7.356;2023-04-03T06:22:56;25.40;1.00
19908;DHT22;10116;53.112;7.356;2023-04-03T06:25:22;25.50;1.00
19908;DHT22;10116;53.112;7.356;2023-04-03T06:27:48;25.50;1.00
19908;DHT22;10116;53.112;7.356;2023-04-03T06:30:13;25.50;1.00
19908;DHT22;10116;53.112;7.356;2023-04-03T06:32:39;25.40;1.00
19908;DHT22;10116;53.112;7.356;2023-04-03T06:35:06;25.40;1.00
19908;DHT22;10116;53.112;7.356;2023-04-03T06:37:31;25.50;1.00
19908;DHT22;10116;53.112;7.356;2023-04-03T06:39:58;25.40;1.00
19908;DHT22;10116;53.112;7.356;2023-04-03T06:42:25;25.50;1.00
19908;DHT22;10116;53.112;7.356;2023-04-03T06:44:51;25.50;1.00
19908;DHT22;10116;53.112;7.356;2023-04-03T06:47:17;25.60;1.00
19908;DHT22;10116;53.112;7.356;2023-04-03T06:49:43;25.60;1.00
19908;DHT22;10116;53.112;7.356;2023-04-03T06:52:09;25.60;1.00
19908;DHT22;10116;53.112;7.356;2023-04-03T06:54:37;25.60;1.00
19908;DHT22;10116;53.112;7.356;2023-04-03T06:57:03;25.60;1.00
19908;DHT22;10116;53.112;7.356;2023-04-03T06:59:29;25.60;1.00
19908;DHT22;10116;53.112;7.356;2023-04-03T07:01:54;25.60;1.00
19908;DHT22;10116;53.112;7.356;2023-04-03T07:04:20;25.60;1.00
19908;DHT22;10116;53.112;7.356;2023-04-03T07:06:47;25.60;1.00
19908;DHT22;10116;53.112;7.356;2023-04-03T07:09:13;25.60;1.00
19908;DHT22;10116;53.112;7.356;2023-04-03T07:11:39;25.60;1.00
19908;DHT22;10116;53.112;7.356;2023-04-03T07:14:05;25.50;1.00
19908;DHT22;10116;53.112;7.356;2023-04-03T07:16:33;25.50;1.00
19908;DHT22;10116;53.112;7.356;2023-04-03T07:18:59;25.40;1.00
19908;DHT22;10116;53.112;7.356;2023-04-03T07:21:25;25.40;1.00
19908;DHT22;10116;53.112;7.356;2023-04-03T07:23:51;25.40;1.00
19908;DHT22;10116;53.112;7.356;2023-04-03T07:26:17;25.40;1.00
19908;DHT22;10116;53.112;7.356;2023-04-03T07:28:43;25.30;1.00
19908;DHT22;10116;53.112;7.356;2023-04-03T07:31:13;25.30;1.00
19908;DHT22;10116;53.112;7.356;2023-04-03T07:33:39;25.30;1.00
19908;DHT22;10116;53.112;7.356;2023-04-03T07:36:07;25.20;1.00
19908;DHT22;10116;53.112;7.356;2023-04-03T07:38:33;25.20;1.00
19908;DHT22;10116;53.112;7.356;2023-04-03T07:41:00;25.20;1.00
19908;DHT22;10116;53.112;7.356;2023-04-03T07:43:26;25.20;1.00
19908;DHT22;10116;53.112;7.356;2023-04-03T07:45:52;25.20;1.00
19908;DHT22;10116;53.112;7.356;2023-04-03T07:48:21;25.20;1.00
19908;DHT22;10116;53.112;7.356;2023-04-03T07:50:48;25.20;1.00
19908;DHT22;10116;53.112;7.356;2023-04-03T07:53:14;25.20;1.00
19908;DHT22;10116;53.112;7.356;2023-04-03T07:55:40;25.20;1.00
19908;DHT22;10116;53.112;7.356;2023-04-03T07:58:14;25.20;1.00
19908;DHT22;10116;53.112;7.356;2023-04-03T08:00:40;25.20;1.00
19908;DHT22;10116;53.112;7.356;2023-04-03T08:03:07;25.10;1.00
19908;DHT22;10116;53.112;7.356;2023-04-03T08:05:43;25.10;1.00
19908;DHT22;10116;53.112;7.356;2023-04-03T08:08:11;25.10;1.00
19908;DHT22;10116;53.112;7.356;2023-04-03T08:10:37;25.00;1.00
19908;DHT22;10116;53.112;7.356;2023-04-03T08:13:03;25.00;1.00
19908;DHT22;10116;53.112;7.356;2023-04-03T08:15:29;25.00;1.00
19908;DHT22;10116;53.112;7.356;2023-04-03T08:17:55;25.00;1.00
19908;DHT22;10116;53.112;7.356;2023-04-03T08:20:21;25.00;1.00
19908;DHT22;10116;53.112;7.356;2023-04-03T08:22:47;25.00;1.00
19908;DHT22;10116;53.112;7.356;2023-04-03T08:25:13;24.90;1.00
19908;DHT22;10116;53.112;7.356;2023-04-03T08:27:38;24.90;1.00
19908;DHT22;10116;53.112;7.356;2023-04-03T08:30:05;24.90;1.00
19908;DHT22;10116;53.112;7.356;2023-04-03T08:32:33;24.90;1.00
19908;DHT22;10116;53.112;7.356;2023-04-03T08:35:00;24.90;1.00
19908;DHT22;10116;53.112;7.356;2023-04-03T08:37:25;24.80;1.00
19908;DHT22;10116;53.112;7.356;2023-04-03T08:39:51;24.80;1.00
19908;DHT22;10116;53.112;7.356;2023-04-03T08:45:26;24.80;1.00
19908;DHT22;10116;53.112;7.356;2023-04-03T08:48:00;24.80;1.00
19908;DHT22;10116;53.112;7.356;2023-04-03T08:50:36;24.80;1.00
19908;DHT22;10116;53.112;7.356;2023-04-03T08:53:03;24.70;1.00
19908;DHT22;10116;53.112;7.356;2023-04-03T08:55:35;24.70;1.00
19908;DHT22;10116;53.112;7.356;2023-04-03T08:58:45;24.60;1.00
19908;DHT22;10116;53.112;7.356;2023-04-03T09:01:04;24.60;1.00
19908;DHT22;10116;53.112;7.356;2023-04-03T09:03:38;24.60;1.00
19908;DHT22;10116;53.112;7.356;2023-04-03T09:06:09;24.60;1.00
19908;DHT22;10116;53.112;7.356;2023-04-03T09:08:46;24.60;1.00
19908;DHT22;10116;53.112;7.356;2023-04-03T09:14:02;24.60;1.00
19908;DHT22;10116;53.112;7.356;2023-04-03T09:16:39;24.60;1.00
19908;DHT22;10116;53.112;7.356;2023-04-03T09:21:39;24.50;1.00
19908;DHT22;10116;53.112;7.356;2023-04-03T09:24:13;24.50;1.00
19908;DHT22;10116;53.112;7.356;2023-04-03T09:29:16;24.50;1.00
19908;DHT22;10116;53.112;7.356;2023-04-03T09:31:44;24.50;1.00
19908;DHT22;10116;53.112;7.356;2023-04-03T09:36:57;24.50;1.00
19908;DHT22;10116;53.112;7.356;2023-04-03T09:39:28;24.50;1.00
19908;DHT22;10116;53.112;7.356;2023-04-03T09:44:36;24.40;1.00
19908;DHT22;10116;53.112;7.356;2023-04-03T09:47:24;24.40;1.00
19908;DHT22;10116;53.112;7.356;2023-04-03T09:49:49;24.40;1.00
19908;DHT22;10116;53.112;7.356;2023-04-03T09:52:25;24.40;1.00
19908;DHT22;10116;53.112;7.356;2023-04-03T09:54:51;24.40;1.00
19908;DHT22;10116;53.112;7.356;2023-04-03T09:57:17;24.40;1.00
19908;DHT22;10116;53.112;7.356;2023-04-03T10:00:00;24.40;1.00
19908;DHT22;10116;53.112;7.356;2023-04-03T10:04:55;24.40;1.00
19908;DHT22;10116;53.112;7.356;2023-04-03T10:07:35;24.40;1.00
19908;DHT22;10116;53.112;7.356;2023-04-03T10:10:22;24.40;1.00
19908;DHT22;10116;53.112;7.356;2023-04-03T10:13:25;24.60;1.00
19908;DHT22;10116;53.112;7.356;2023-04-03T10:16:00;24.60;1.00
19908;DHT22;10116;53.112;7.356;2023-04-03T10:18:45;24.70;1.00
19908;DHT22;10116;53.112;7.356;2023-04-03T10:27:26;24.80;1.00
19908;DHT22;10116;53.112;7.356;2023-04-03T10:30:32;24.80;1.00
19908;DHT22;10116;53.112;7.356;2023-04-03T10:33:20;24.80;1.00
19908;DHT22;10116;53.112;7.356;2023-04-03T10:38:48;24.80;1.00
19908;DHT22;10116;53.112;7.356;2023-04-03T10:46:48;24.80;1.00
19908;DHT22;10116;53.112;7.356;2023-04-03T10:49:24;24.80;1.00
19908;DHT22;10116;53.112;7.356;2023-04-03T10:52:28;24.80;1.00
19908;DHT22;10116;53.112;7.356;2023-04-03T10:57:46;24.70;1.00
19908;DHT22;10116;53.112;7.356;2023-04-03T11:00:21;24.70;1.00
19908;DHT22;10116;53.112;7.356;2023-04-03T11:02:56;24.70;1.00
19908;DHT22;10116;53.112;7.356;2023-04-03T11:05:48;24.70;1.00
19908;DHT22;10116;53.112;7.356;2023-04-03T11:10:55;24.80;1.00
19908;DHT22;10116;53.112;7.356;2023-04-03T11:13:34;24.80;1.00
19908;DHT22;10116;53.112;7.356;2023-04-03T11:16:02;24.80;1.00
19908;DHT22;10116;53.112;7.356;2023-04-03T11:21:03;24.80;1.00
19908;DHT22;10116;53.112;7.356;2023-04-03T11:23:36;24.80;1.00
19908;DHT22;10116;53.112;7.356;2023-04-03T11:26:12;24.80;1.00
19908;DHT22;10116;53.112;7.356;2023-04-03T11:28:38;24.80;1.00
19908;DHT22;10116;53.112;7.356;2023-04-03T11:31:23;24.80;1.00
19908;DHT22;10116;53.112;7.356;2023-04-03T11:36:31;24.70;1.00
19908;DHT22;10116;53.112;7.356;2023-04-03T11:39:16;24.70;1.00
19908;DHT22;10116;53.112;7.356;2023-04-03T11:41:43;24.70;1.00
19908;DHT22;10116;53.112;7.356;2023-04-03T11:44:30;24.70;1.00
19908;DHT22;10116;53.112;7.356;2023-04-03T11:46:58;24.70;1.00
19908;DHT22;10116;53.112;7.356;2023-04-03T11:50:00;24.70;1.00
19908;DHT22;10116;53.112;7.356;2023-04-03T12:11:25;24.90;1.00
19908;DHT22;10116;53.112;7.356;2023-04-03T12:16:24;24.90;1.00
19908;DHT22;10116;53.112;7.356;2023-04-03T12:32:06;24.80;1.00
19908;DHT22;10116;53.112;7.356;2023-04-03T12:34:46;24.80;1.00
19908;DHT22;10116;53.112;7.356;2023-04-03T12:40:10;24.80;1.00
19908;DHT22;10116;53.112;7.356;2023-04-03T12:45:58;24.70;1.00
19908;DHT22;10116;53.112;7.356;2023-04-03T12:48:30;24.70;1.00
19908;DHT22;10116;53.112;7.356;2023-04-03T12:50:57;24.70;1.00
19908;DHT22;10116;53.112;7.356;2023-04-03T12:53:29;24.70;1.00
19908;DHT22;10116;53.112;7.356;2023-04-03T12:58:44;24.70;1.00
19908;DHT22;10116;53.112;7.356;2023-04-03T13:01:12;24.60;1.00
19908;DHT22;10116;53.112;7.356;2023-04-03T13:03:43;24.60;1.00
19908;DHT22;10116;53.112;7.356;2023-04-03T13:06:39;24.60;1.00
19908;DHT22;10116;53.112;7.356;2023-04-03T13:09:14;24.60;1.00
19908;DHT22;10116;53.112;7.356;2023-04-03T13:11:42;24.60;1.00
19908;DHT22;10116;53.112;7.356;2023-04-03T13:14:21;24.60;1.00
19908;DHT22;10116;53.112;7.356;2023-04-03T13:16:55;24.60;1.00
19908;DHT22;10116;53.112;7.356;2023-04-03T13:19:23;24.60;1.00
19908;DHT22;10116;53.112;7.356;2023-04-03T13:21:56;24.60;1.00
19908;DHT22;10116;53.112;7.356;2023-04-03T13:24:23;24.70;1.00
19908;DHT22;10116;53.112;7.356;2023-04-03T13:26:50;24.80;1.00
19908;DHT22;10116;53.112;7.356;2023-04-03T13:29:27;24.80;1.00
19908;DHT22;10116;53.112;7.356;2023-04-03T13:31:55;24.80;1.00
19908;DHT22;10116;53.112;7.356;2023-04-03T13:34:23;24.80;1.00
19908;DHT22;10116;53.112;7.356;2023-04-03T13:36:59;24.90;1.00
19908;DHT22;10116;53.112;7.356;2023-04-03T13:39:31;24.80;1.00
19908;DHT22;10116;53.112;7.356;2023-04-03T13:42:00;24.80;1.00
19908;DHT22;10116;53.112;7.356;2023-04-03T13:44:37;24.80;1.00
19908;DHT22;10116;53.112;7.356;2023-04-03T13:49:45;24.80;1.00
19908;DHT22;10116;53.112;7.356;2023-04-03T13:52:45;24.80;1.00
19908;DHT22;10116;53.112;7.356;2023-04-03T13:55:23;24.80;1.00
19908;DHT22;10116;53.112;7.356;2023-04-03T14:00:48;24.70;1.00
19908;DHT22;10116;53.112;7.356;2023-04-03T14:05:53;24.70;1.00
19908;DHT22;10116;53.112;7.356;2023-04-03T14:08:20;24.70;1.00
19908;DHT22;10116;53.112;7.356;2023-04-03T14:10:46;24.60;1.00
19908;DHT22;10116;53.112;7.356;2023-04-03T14:13:17;24.60;1.00
19908;DHT22;10116;53.112;7.356;2023-04-03T14:15:46;24.60;1.00
19908;DHT22;10116;53.112;7.356;2023-04-03T14:18:14;24.60;1.00
19908;DHT22;10116;53.112;7.356;2023-04-03T14:20:40;24.60;1.00
19908;DHT22;10116;53.112;7.356;2023-04-03T14:23:05;24.60;1.00
19908;DHT22;10116;53.112;7.356;2023-04-03T14:25:32;24.60;1.00
19908;DHT22;10116;53.112;7.356;2023-04-03T14:27:58;24.60;1.00
19908;DHT22;10116;53.112;7.356;2023-04-03T14:30:31;24.70;1.00
19908;DHT22;10116;53.112;7.356;2023-04-03T14:32:57;24.70;1.00
19908;DHT22;10116;53.112;7.356;2023-04-03T14:35:24;24.70;1.00
19908;DHT22;10116;53.112;7.356;2023-04-03T14:37:52;24.70;1.00
19908;DHT22;10116;53.112;7.356;2023-04-03T14:40:21;24.80;1.00
19908;DHT22;10116;53.112;7.356;2023-04-03T14:42:47;24.80;1.00
19908;DHT22;10116;53.112;7.356;2023-04-03T14:45:15;24.70;1.00
19908;DHT22;10116;53.112;7.356;2023-04-03T14:47:46;24.70;1.00
19908;DHT22;10116;53.112;7.356;2023-04-03T14:50:21;24.70;1.00
19908;DHT22;10116;53.112;7.356;2023-04-03T14:52:47;24.70;1.00
19908;DHT22;10116;53.112;7.356;2023-04-03T14:55:16;24.70;1.00
19908;DHT22;10116;53.112;7.356;2023-04-03T14:57:42;24.70;1.00
19908;DHT22;10116;53.112;7.356;2023-04-03T15:00:13;24.70;1.00
19908;DHT22;10116;53.112;7.356;2023-04-03T15:02:39;24.70;1.00
19908;DHT22;10116;53.112;7.356;2023-04-03T15:05:08;24.60;1.00
19908;DHT22;10116;53.112;7.356;2023-04-03T15:07:48;24.60;1.00
19908;DHT22;10116;53.112;7.356;2023-04-03T15:10:18;24.60;1.00
19908;DHT22;10116;53.112;7.356;2023-04-03T15:12:44;24.60;1.00
19908;DHT22;10116;53.112;7.356;2023-04-03T15:15:10;24.60;1.00
19908;DHT22;10116;53.112;7.356;2023-04-03T15:17:36;24.60;1.00
19908;DHT22;10116;53.112;7.356;2023-04-03T15:20:03;24.60;1.00
19908;DHT22;10116;53.112;7.356;2023-04-03T15:22:29;24.60;1.00
19908;DHT22;10116;53.112;7.356;2023-04-03T15:24:54;24.60;1.00
19908;DHT22;10116;53.112;7.356;2023-04-03T15:27:20;24.60;1.00
19908;DHT22;10116;53.112;7.356;2023-04-03T15:29:46;24.70;1.00
19908;DHT22;10116;53.112;7.356;2023-04-03T15:32:12;24.70;1.00
19908;DHT22;10116;53.112;7.356;2023-04-03T15:34:38;24.70;1.00
19908;DHT22;10116;53.112;7.356;2023-04-03T15:37:04;24.70;1.00
19908;DHT22;10116;53.112;7.356;2023-04-03T15:39:31;24.70;1.00
19908;DHT22;10116;53.112;7.356;2023-04-03T15:41:56;24.70;1.00
19908;DHT22;10116;53.112;7.356;2023-04-03T15:44:25;24.70;1.00
19908;DHT22;10116;53.112;7.356;2023-04-03T15:46:51;24.70;1.00
19908;DHT22;10116;53.112;7.356;2023-04-03T15:49:17;24.70;1.00
19908;DHT22;10116;53.112;7.356;2023-04-03T15:51:43;24.70;1.00
19908;DHT22;10116;53.112;7.356;2023-04-03T15:54:09;24.60;1.00
19908;DHT22;10116;53.112;7.356;2023-04-03T15:56:35;24.60;1.00
19908;DHT22;10116;53.112;7.356;2023-04-03T15:59:00;24.60;1.00
19908;DHT22;10116;53.112;7.356;2023-04-03T16:01:26;24.60;1.00
19908;DHT22;10116;53.112;7.356;2023-04-03T16:03:52;24.60;1.00
19908;DHT22;10116;53.112;7.356;2023-04-03T16:06:18;24.60;1.00
19908;DHT22;10116;53.112;7.356;2023-04-03T16:08:44;24.60;1.00
19908;DHT22;10116;53.112;7.356;2023-04-03T16:11:11;24.60;1.00
19908;DHT22;10116;53.112;7.356;2023-04-03T16:13:37;24.50;1.00
19908;DHT22;10116;53.112;7.356;2023-04-03T16:16:03;24.50;1.00
19908;DHT22;10116;53.112;7.356;2023-04-03T16:18:30;24.50;1.00
19908;DHT22;10116;53.112;7.356;2023-04-03T16:20:55;24.50;1.00
19908;DHT22;10116;53.112;7.356;2023-04-03T16:23:22;24.50;1.00
19908;DHT22;10116;53.112;7.356;2023-04-03T16:25:48;24.60;1.00
19908;DHT22;10116;53.112;7.356;2023-04-03T16:28:16;24.60;1.00
19908;DHT22;10116;53.112;7.356;2023-04-03T16:30:43;24.60;1.00
19908;DHT22;10116;53.112;7.356;2023-04-03T16:33:10;24.60;1.00
19908;DHT22;10116;53.112;7.356;2023-04-03T16:35:36;24.60;1.00
19908;DHT22;10116;53.112;7.356;2023-04-03T16:38:02;24.60;1.00
19908;DHT22;10116;53.112;7.356;2023-04-03T16:40:27;24.60;1.00
19908;DHT22;10116;53.112;7.356;2023-04-03T16:42:53;24.60;1.00
19908;DHT22;10116;53.112;7.356;2023-04-03T16:45:18;24.60;1.00
19908;DHT22;10116;53.112;7.356;2023-04-03T16:47:44;24.60;1.00
19908;DHT22;10116;53.112;7.356;2023-04-03T16:50:10;24.60;1.00
19908;DHT22;10116;53.112;7.356;2023-04-03T16:52:36;24.60;1.00
19908;DHT22;10116;53.112;7.356;2023-04-03T16:55:01;24.50;1.00
19908;DHT22;10116;53.112;7.356;2023-04-03T16:57:27;24.50;1.00
19908;DHT22;10116;53.112;7.356;2023-04-03T16:59:53;24.50;1.00
19908;DHT22;10116;53.112;7.356;2023-04-03T17:02:20;24.50;1.00
19908;DHT22;10116;53.112;7.356;2023-04-03T17:04:46;24.50;1.00
19908;DHT22;10116;53.112;7.356;2023-04-03T17:07:12;24.50;1.00
19908;DHT22;10116;53.112;7.356;2023-04-03T17:09:37;24.50;1.00
19908;DHT22;10116;53.112;7.356;2023-04-03T17:12:03;24.40;1.00
19908;DHT22;10116;53.112;7.356;2023-04-03T17:14:29;24.40;1.00
19908;DHT22;10116;53.112;7.356;2023-04-03T17:16:55;24.40;1.00
19908;DHT22;10116;53.112;7.356;2023-04-03T17:19:21;24.40;1.00
19908;DHT22;10116;53.112;7.356;2023-04-03T17:21:48;24.40;1.00
19908;DHT22;10116;53.112;7.356;2023-04-03T17:24:14;24.40;1.00
19908;DHT22;10116;53.112;7.356;2023-04-03T17:26:41;24.40;1.00
19908;DHT22;10116;53.112;7.356;2023-04-03T17:29:07;24.40;1.00
19908;DHT22;10116;53.112;7.356;2023-04-03T17:31:33;24.40;1.00
19908;DHT22;10116;53.112;7.356;2023-04-03T17:33:58;24.40;1.00
19908;DHT22;10116;53.112;7.356;2023-04-03T17:36:27;24.40;1.00
19908;DHT22;10116;53.112;7.356;2023-04-03T17:38:53;24.40;1.00